Time;durP1;ratioP1;P1;durP2;ratioP2;P2;SDS_P1;SDS_P2;PMS_P1;PMS_P2;Temp;Humidity;BMP_temperature;BMP_pressure;BME280_temperature;BME280_humidity;BME280_pressure;Samples;Min_cycle;Max_cycle;Signal;HPM_P1;HPM_P2
2023/01/28 00:02:08;;;;;;;43.90;25.10;;;;;;;-1.93;74.01;97443.86;108778;1253;96003;-75
2023/01/28 00:04:36;;;;;;;39.50;23.80;;;;;;;-1.93;74.02;97443.29;108788;1251;103615;-74
2023/01/28 00:07:04;;;;;;;44.60;24.20;;;;;;;-1.91;74.09;97444.21;108510;1251;101472;-75
2023/01/28 00:09:32;;;;;;;44.20;24.10;;;;;;;-1.92;74.02;97440.60;108790;1251;100095;-75
2023/01/28 00:12:00;;;;;;;46.30;25.20;;;;;;;-1.95;74.01;97441.73;108805;1251;95560;-75
2023/01/28 00:14:28;;;;;;;45.80;25.40;;;;;;;-1.93;74.08;97440.35;108794;1253;96495;-75
2023/01/28 00:16:57;;;;;;;43.80;25.60;;;;;;;-1.90;74.18;97439.02;108568;1251;103287;-75
2023/01/28 00:19:25;;;;;;;41.90;24.10;;;;;;;-1.89;74.16;97436.13;108832;1251;101545;-75
2023/01/28 00:21:53;;;;;;;46.20;25.50;;;;;;;-1.98;73.95;97433.85;108743;1251;99059;-76
2023/01/28 00:24:21;;;;;;;44.10;24.30;;;;;;;-2.02;74.17;97436.21;108805;1251;95574;-75
2023/01/28 00:26:49;;;;;;;48.80;25.60;;;;;;;-2.02;74.31;97435.10;108820;1251;96041;-75
2023/01/28 00:29:17;;;;;;;45.60;25.50;;;;;;;-2.00;74.26;97434.39;108807;1251;103782;-75
2023/01/28 00:31:45;;;;;;;47.30;25.00;;;;;;;-1.97;74.23;97433.49;108744;1251;101744;-75
2023/01/28 00:34:14;;;;;;;45.60;25.50;;;;;;;-1.97;74.27;97431.68;108778;1251;100273;-75
2023/01/28 00:36:42;;;;;;;41.20;23.20;;;;;;;-1.96;74.37;97434.59;108794;1251;95611;-75
2023/01/28 00:39:14;;;;;;;42.80;24.10;;;;;;;-1.96;74.24;97433.52;108815;1251;96004;-75
2023/01/28 00:41:42;;;;;;;45.80;25.10;;;;;;;-2.00;74.26;97432.66;108511;1251;103905;-76
2023/01/28 00:44:10;;;;;;;49.50;26.90;;;;;;;-2.06;74.26;97435.83;108473;1252;101285;-75
2023/01/28 00:46:40;;;;;;;51.40;25.80;;;;;;;-2.05;74.34;97437.00;108401;1251;193876;-75
2023/01/28 00:49:08;;;;;;;40.70;23.90;;;;;;;-2.06;74.37;97440.75;108759;1251;95799;-75
2023/01/28 00:51:37;;;;;;;44.20;23.20;;;;;;;-2.07;74.44;97446.52;108875;1251;96458;-75
2023/01/28 00:54:05;;;;;;;40.30;23.00;;;;;;;-2.09;74.47;97444.70;108831;1251;103169;-75
2023/01/28 00:56:35;;;;;;;45.40;24.20;;;;;;;-2.14;74.42;97442.37;108425;1253;101360;-75
2023/01/28 00:59:03;;;;;;;46.30;25.20;;;;;;;-2.15;74.46;97444.05;108761;1251;100083;-74
2023/01/28 01:01:32;;;;;;;81.10;34.50;;;;;;;-2.13;74.48;97442.11;108574;1251;95671;-76
2023/01/28 01:04:02;;;;;;;49.60;26.50;;;;;;;-2.13;74.69;97448.23;108832;1251;96070;-75
2023/01/28 01:06:39;;;;;;;63.00;29.20;;;;;;;-2.13;74.61;97453.70;108845;1251;102661;-75
2023/01/28 01:09:11;;;;;;;50.10;25.70;;;;;;;-2.11;74.63;97453.89;108840;1251;101702;-76
2023/01/28 01:11:39;;;;;;;;;;;;;;;-2.10;74.69;97452.23;108803;1251;100236;-75
2023/01/28 01:14:07;;;;;;;44.70;25.30;;;;;;;-2.13;74.65;97453.73;108804;1251;95578;-75
2023/01/28 01:16:37;;;;;;;52.40;28.00;;;;;;;-2.12;74.71;97450.84;108571;1251;96160;-75
2023/01/28 01:19:07;;;;;;;49.80;27.70;;;;;;;-2.09;74.79;97451.45;108839;1251;102084;-75
2023/01/28 01:21:36;;;;;;;47.10;26.60;;;;;;;-2.10;74.73;97448.50;108825;1250;101254;-75
2023/01/28 01:24:04;;;;;;;47.70;26.00;;;;;;;-2.13;74.76;97446.83;108817;1251;100081;-75
2023/01/28 01:26:32;;;;;;;51.30;27.70;;;;;;;-2.14;74.73;97445.32;108792;1251;95784;-76
2023/01/28 01:29:00;;;;;;;48.70;27.40;;;;;;;-2.12;74.72;97445.00;108824;1251;96062;-75
2023/01/28 01:31:28;;;;;;;51.90;29.20;;;;;;;-2.09;74.90;97444.55;108809;1251;103686;-75
2023/01/28 01:33:56;;;;;;;46.30;26.90;;;;;;;-2.06;74.84;97448.30;108835;1251;101281;-75
2023/01/28 01:36:24;;;;;;;51.00;28.20;;;;;;;-2.08;74.56;97448.51;108807;1251;99153;-75
2023/01/28 01:38:54;;;;;;;46.70;27.40;;;;;;;-2.11;74.62;97445.79;108513;1251;96585;-76
2023/01/28 01:41:31;;;;;;;61.50;30.80;;;;;;;-2.10;74.74;97444.42;108529;1251;96156;-75
2023/01/28 01:44:04;;;;;;;61.30;31.80;;;;;;;-2.08;74.73;97449.45;108573;1252;102140;-75
2023/01/28 01:46:35;;;;;;;50.80;28.60;;;;;;;-2.07;74.68;97444.57;108788;1251;101715;-76
2023/01/28 01:49:17;;;;;;;61.00;33.00;;;;;;;-2.04;74.64;97447.26;108775;1251;100017;-75
2023/01/28 01:51:48;;;;;;;50.20;27.10;;;;;;;-2.03;74.67;97446.79;108788;1251;95814;-76
2023/01/28 01:54:18;;;;;;;48.40;27.90;;;;;;;-2.03;74.58;97448.60;108755;1251;95948;-75
2023/01/28 01:56:49;;;;;;;51.60;28.90;;;;;;;-2.02;74.58;97446.36;108288;1252;102554;-75
2023/01/28 01:59:26;;;;;;;63.20;32.90;;;;;;;-2.02;74.59;97446.88;108774;1251;101628;-76
2023/01/28 02:01:55;;;;;;;60.60;31.60;;;;;;;-2.01;74.77;97451.05;108748;1251;100178;-76
2023/01/28 02:04:26;;;;;;;54.60;29.10;;;;;;;-2.00;74.75;97454.02;108744;1251;95625;-75
2023/01/28 02:06:55;;;;;;;46.80;27.40;;;;;;;-2.02;74.76;97455.34;108579;1251;95638;-76
2023/01/28 02:09:30;;;;;;;58.00;29.80;;;;;;;-2.04;74.80;97455.22;108712;1252;103125;-75
2023/01/28 02:12:03;;;;;;;53.80;29.20;;;;;;;-2.03;74.86;97457.03;108566;1251;101625;-76
2023/01/28 02:14:35;;;;;;;52.00;30.30;;;;;;;-2.02;74.89;97459.10;108796;1251;100147;-75
2023/01/28 02:17:05;;;;;;;53.30;30.00;;;;;;;-2.02;74.85;97457.52;108789;1251;95556;-75
2023/01/28 02:19:44;;;;;;;53.50;28.80;;;;;;;-2.01;75.02;97453.92;108816;1251;96381;-75
2023/01/28 02:22:43;;;;;;;53.40;27.60;;;;;;;-2.00;74.99;97452.89;108598;1256;103466;-76
2023/01/28 02:25:43;;;;;;;49.50;26.20;;;;;;;-2.02;75.03;97454.81;108574;1251;101391;-76
2023/01/28 02:28:33;;;;;;;51.20;27.60;;;;;;;-2.02;75.09;97454.13;108762;1251;99590;-76
2023/01/28 02:31:09;;;;;;;48.10;27.00;;;;;;;-2.05;75.12;97455.67;108803;1251;95944;-75
2023/01/28 02:33:46;;;;;;;49.90;28.60;;;;;;;-2.07;75.13;97452.70;108687;1252;96095;-75
2023/01/28 02:36:27;;;;;;;48.70;27.90;;;;;;;-2.13;75.09;97450.20;108790;1253;103831;-75
2023/01/28 02:39:01;;;;;;;51.50;28.40;;;;;;;-2.15;75.19;97452.80;108728;1254;101402;-75
2023/01/28 02:41:34;;;;;;;60.50;30.50;;;;;;;-2.15;75.26;97453.89;108758;1253;99926;-75
2023/01/28 02:44:03;;;;;;;53.70;28.70;;;;;;;-2.17;75.21;97455.27;108800;1251;95592;-75
2023/01/28 02:49:20;;;;;;;52.00;28.00;;;;;;;-2.15;75.33;97459.00;108492;1255;103587;-75
2023/01/28 02:55:39;;;;;;;54.00;27.90;;;;;;;-2.12;75.29;97459.27;108447;1255;99820;-75
2023/01/28 02:58:25;;;;;;;51.40;28.60;;;;;;;-2.12;75.30;97457.14;108432;1257;95618;-75
2023/01/28 03:01:16;;;;;;;48.40;28.30;;;;;;;-2.10;75.21;97458.23;108445;1255;96003;-75
2023/01/28 03:04:23;;;;;;;48.30;28.10;;;;;;;-2.09;75.26;97460.41;108390;1257;103581;-75
2023/01/28 03:06:55;;;;;;;46.70;27.20;;;;;;;-2.08;75.23;97455.08;108001;1263;100495;-75
2023/01/28 03:09:25;;;;;;;;;;;;;;;-2.11;75.32;97455.11;107995;1262;98914;-75
2023/01/28 03:37:42;;;;;;;55.40;31.50;;;;;;;-2.17;75.78;97451.42;108073;1260;99618;-75
2023/01/28 03:40:11;;;;;;;52.90;29.20;;;;;;;-2.18;75.84;97448.91;108129;1261;95722;-75
2023/01/28 03:42:39;;;;;;;46.50;28.20;;;;;;;-2.17;75.82;97451.46;108440;1251;96159;-75
2023/01/28 03:45:08;;;;;;;50.60;29.50;;;;;;;-2.15;75.80;97450.91;108804;1251;102493;-75
2023/01/28 03:47:39;;;;;;;58.00;32.10;;;;;;;-2.12;75.79;97445.89;108519;1254;101389;-76
2023/01/28 03:50:08;;;;;;;54.80;31.30;;;;;;;-2.09;75.73;97448.77;108472;1251;100157;-75
2023/01/28 03:52:36;;;;;;;46.30;28.60;;;;;;;-2.05;75.81;97451.14;108786;1251;95816;-76
2023/01/28 03:55:12;;;;;;;53.40;31.00;;;;;;;-2.05;75.62;97450.88;108803;1251;96375;-75
2023/01/28 03:57:41;;;;;;;52.20;28.80;;;;;;;-2.05;75.65;97452.49;108804;1251;112976;-75
2023/01/28 04:00:10;;;;;;;49.10;28.30;;;;;;;-2.06;75.53;97453.61;108766;1251;101309;-76
2023/01/28 04:02:39;;;;;;;50.30;27.60;;;;;;;-2.08;75.56;97454.35;108204;1253;99934;-76
2023/01/28 04:05:14;;;;;;;50.90;28.50;;;;;;;-2.10;75.62;97452.00;108735;1251;95634;-75
2023/01/28 04:07:42;;;;;;;48.50;27.40;;;;;;;-2.11;75.77;97450.91;108770;1252;96782;-75
2023/01/28 04:10:10;;;;;;;52.90;29.00;;;;;;;-2.15;75.64;97454.62;108753;1252;103460;-75
2023/01/28 04:12:38;;;;;;;45.80;27.90;;;;;;;-2.18;75.57;97455.61;108772;1251;101389;-75
2023/01/28 04:15:14;;;;;;;49.40;26.90;;;;;;;-2.20;75.57;97456.58;108715;1251;99934;-75
2023/01/28 04:17:47;;;;;;;47.70;26.50;;;;;;;-2.20;75.58;97461.17;108499;1251;95834;-75
2023/01/28 04:20:15;;;;;;;43.30;25.60;;;;;;;-2.22;75.51;97467.36;108756;1252;96001;-75
2023/01/28 04:22:43;;;;;;;49.30;26.50;;;;;;;-2.24;75.52;97465.76;108795;1250;103332;-75
2023/01/28 04:25:11;;;;;;;50.60;27.00;;;;;;;-2.23;75.52;97467.41;108803;1251;101268;-75
2023/01/28 04:27:40;;;;;;;44.70;25.90;;;;;;;-2.21;75.48;97468.13;108524;1251;99920;-76
2023/01/28 04:30:08;;;;;;;48.70;25.90;;;;;;;-2.18;75.51;97468.09;108751;1251;95553;-76
2023/01/28 04:32:36;;;;;;;52.80;28.10;;;;;;;-2.16;75.44;97471.77;108518;1252;96080;-75
2023/01/28 04:35:05;;;;;;;47.90;26.70;;;;;;;-2.16;75.40;97469.12;108477;1253;103521;-75
2023/01/28 04:37:33;;;;;;;50.90;27.60;;;;;;;-2.16;75.38;97474.09;108791;1251;101689;-75
2023/01/28 04:40:01;;;;;;;50.60;28.00;;;;;;;-2.16;75.30;97477.92;108792;1251;98448;-75
2023/01/28 04:42:29;;;;;;;53.10;28.40;;;;;;;-2.17;75.41;97480.15;108743;1251;95517;-75
2023/01/28 04:44:57;;;;;;;52.00;28.50;;;;;;;-2.17;75.56;97485.61;108794;1251;96032;-74
2023/01/28 04:47:25;;;;;;;51.80;28.90;;;;;;;-2.17;75.45;97489.48;108813;1251;102654;-76
2023/01/28 04:49:53;;;;;;;51.80;27.90;;;;;;;-2.18;75.41;97489.80;108813;1251;102001;-76
2023/01/28 04:52:22;;;;;;;51.60;29.40;;;;;;;-2.19;75.38;97495.69;108789;1251;107441;-75
2023/01/28 04:54:50;;;;;;;44.90;26.30;;;;;;;-2.20;75.53;97495.19;108771;1251;95844;-75
2023/01/28 04:57:18;;;;;;;52.90;26.70;;;;;;;-2.20;75.45;97498.55;108797;1251;96077;-75
2023/01/28 04:59:46;;;;;;;47.50;26.50;;;;;;;-2.18;75.47;97504.77;108806;1251;103780;-75
2023/01/28 05:02:14;;;;;;;46.00;25.10;;;;;;;-2.19;75.42;97499.55;108803;1251;100989;-75
2023/01/28 05:04:43;;;;;;;49.80;26.90;;;;;;;-2.19;75.44;97502.58;108764;1252;99999;-75
2023/01/28 05:07:11;;;;;;;44.00;24.90;;;;;;;-2.19;75.40;97507.44;108728;1251;95667;-75
2023/01/28 05:09:39;;;;;;;47.50;26.40;;;;;;;-2.19;75.43;97510.17;108774;1251;95605;-75
2023/01/28 05:12:07;;;;;;;52.30;25.90;;;;;;;-2.20;75.50;97512.49;108543;1251;103530;-75
2023/01/28 05:14:35;;;;;;;48.60;25.50;;;;;;;-2.19;75.50;97509.79;108785;1251;100272;-75
2023/01/28 05:17:03;;;;;;;46.00;26.00;;;;;;;-2.19;75.65;97509.77;108766;1254;99235;-75
2023/01/28 05:19:32;;;;;;;45.10;25.10;;;;;;;-2.19;75.64;97508.70;108516;1253;95684;-75
2023/01/28 05:22:00;;;;;;;46.70;25.50;;;;;;;-2.18;75.60;97505.48;108760;1251;96019;-75
2023/01/28 05:24:28;;;;;;;51.00;27.30;;;;;;;-2.18;75.56;97504.02;108781;1252;103769;-75
2023/01/28 05:26:56;;;;;;;43.70;25.00;;;;;;;-2.16;75.52;97505.61;108828;1251;101289;-75
2023/01/28 05:29:24;;;;;;;49.80;26.00;;;;;;;-2.15;75.40;97505.92;108420;1251;99941;-75
2023/01/28 05:31:52;;;;;;;48.10;25.10;;;;;;;-2.15;75.45;97510.17;108749;1251;95844;-75
2023/01/28 05:34:20;;;;;;;49.60;25.50;;;;;;;-2.15;75.61;97513.48;108781;1256;96054;-75
2023/01/28 05:36:49;;;;;;;49.00;27.50;;;;;;;-2.15;75.48;97511.67;108812;1251;103598;-75
2023/01/28 05:39:17;;;;;;;45.50;25.50;;;;;;;-2.15;75.52;97510.45;108844;1251;101225;-76
2023/01/28 05:41:45;;;;;;;44.30;23.90;;;;;;;-2.15;75.53;97515.10;108465;1251;100960;-75
2023/01/28 05:44:13;;;;;;;46.10;26.00;;;;;;;-2.16;75.49;97517.40;108752;1251;95609;-75
2023/01/28 05:46:45;;;;;;;44.70;24.80;;;;;;;-2.16;75.54;97518.13;108818;1251;96033;-76
2023/01/28 05:49:13;;;;;;;45.80;24.40;;;;;;;-2.17;75.47;97522.83;108769;1251;103678;-75
2023/01/28 05:51:42;;;;;;;48.30;26.00;;;;;;;-2.20;75.48;97524.11;108764;1251;101590;-75
2023/01/28 05:54:11;;;;;;;43.10;24.00;;;;;;;-2.20;75.52;97525.73;108464;1252;99031;-75
2023/01/28 05:56:39;;;;;;;45.30;23.60;;;;;;;-2.21;75.53;97526.33;108499;1252;95571;-75
2023/01/28 05:59:09;;;;;;;42.80;22.90;;;;;;;-2.19;75.57;97527.79;108461;1254;96074;-76
2023/01/28 06:01:37;;;;;;;39.90;22.20;;;;;;;-2.18;75.51;97529.63;108786;1251;103371;-75
2023/01/28 06:04:05;;;;;;;41.80;24.20;;;;;;;-2.18;75.49;97528.38;108799;1251;101343;-75
2023/01/28 06:06:33;;;;;;;42.20;24.40;;;;;;;-2.20;75.44;97535.24;108744;1255;99844;-75
2023/01/28 06:09:02;;;;;;;50.10;26.90;;;;;;;-2.21;75.41;97532.17;108747;1255;95828;-75
2023/01/28 06:11:30;;;;;;;47.50;27.00;;;;;;;-2.23;75.44;97535.13;108530;1251;96365;-75
2023/01/28 06:13:58;;;;;;;42.50;23.70;;;;;;;-2.22;75.52;97539.29;108539;1251;103511;-75
2023/01/28 06:16:26;;;;;;;45.30;24.20;;;;;;;-2.19;75.56;97539.17;108842;1251;101371;-75
2023/01/28 06:18:54;;;;;;;43.50;23.20;;;;;;;-2.17;75.45;97539.02;108755;1251;100157;-75
2023/01/28 06:21:22;;;;;;;41.20;24.30;;;;;;;-2.18;75.38;97542.79;108756;1251;95611;-75
2023/01/28 06:23:50;;;;;;;42.00;24.00;;;;;;;-2.20;75.30;97547.52;108777;1251;96035;-75
2023/01/28 06:26:19;;;;;;;44.90;24.50;;;;;;;-2.20;75.43;97552.71;108741;1256;103797;-75
2023/01/28 06:28:47;;;;;;;49.50;26.40;;;;;;;-2.18;75.49;97556.10;108475;1251;101488;-75
2023/01/28 06:31:15;;;;;;;44.60;24.30;;;;;;;-2.16;75.44;97559.77;108753;1251;99973;-75
2023/01/28 06:33:43;;;;;;;45.50;23.70;;;;;;;-2.20;75.49;97559.17;108798;1251;95619;-75
2023/01/28 06:36:11;;;;;;;44.70;24.40;;;;;;;-2.22;75.45;97564.15;108768;1251;96028;-75
2023/01/28 06:38:39;;;;;;;41.10;23.30;;;;;;;-2.22;75.45;97567.88;108742;1251;103576;-75
2023/01/28 06:41:07;;;;;;;40.70;23.40;;;;;;;-2.22;75.46;97570.50;108548;1259;100317;-75
2023/01/28 06:43:35;;;;;;;40.80;23.50;;;;;;;-2.20;75.54;97573.70;108770;1251;100255;-75
2023/01/28 06:46:04;;;;;;;38.40;21.80;;;;;;;-2.20;75.43;97577.58;108791;1255;95857;-75
2023/01/28 06:48:32;;;;;;;39.40;21.90;;;;;;;-2.22;75.37;97582.44;108773;1256;96032;-75
2023/01/28 06:51:00;;;;;;;42.00;23.20;;;;;;;-2.22;75.44;97587.95;108793;1251;104496;-75
2023/01/28 06:53:28;;;;;;;43.60;23.40;;;;;;;-2.22;75.35;97590.98;108542;1251;100925;-75
2023/01/28 06:55:56;;;;;;;42.70;22.90;;;;;;;-2.22;75.41;97589.89;108806;1251;100011;-75
2023/01/28 06:58:24;;;;;;;44.30;24.10;;;;;;;-2.22;75.35;97593.96;108762;1251;95578;-75
2023/01/28 07:00:53;;;;;;;39.40;21.80;;;;;;;-2.22;75.26;97599.05;108739;1251;96043;-75
2023/01/28 07:03:21;;;;;;;42.40;22.80;;;;;;;-2.24;75.39;97597.75;108806;1252;103159;-75
2023/01/28 07:05:49;;;;;;;46.10;24.60;;;;;;;-2.23;75.36;97600.04;108809;1251;101287;-75
2023/01/28 07:08:18;;;;;;;39.70;21.50;;;;;;;-2.26;75.28;97605.72;108817;1253;99803;-74
2023/01/28 07:10:46;;;;;;;43.20;23.80;;;;;;;-2.27;75.31;97608.46;108554;1253;95541;-75
2023/01/28 07:13:14;;;;;;;63.50;33.10;;;;;;;-2.26;75.38;97612.23;108753;1251;96023;-75
2023/01/28 07:15:42;;;;;;;59.80;30.10;;;;;;;-2.26;75.33;97612.21;108574;1251;103235;-74
2023/01/28 07:18:10;;;;;;;60.00;31.20;;;;;;;-2.24;75.28;97614.70;108809;1251;101806;-75
2023/01/28 07:20:38;;;;;;;51.70;28.00;;;;;;;-2.24;75.38;97614.90;108731;1254;99776;-75
2023/01/28 07:23:06;;;;;;;54.60;27.80;;;;;;;-2.23;75.28;97614.48;108718;1254;95571;-75
2023/01/28 07:25:34;;;;;;;62.30;30.90;;;;;;;-2.23;75.32;97613.44;108721;1252;96081;-75
2023/01/28 07:28:02;;;;;;;51.30;27.30;;;;;;;-2.24;75.29;97617.16;108432;1258;103461;-74
2023/01/28 07:30:31;;;;;;;49.40;26.10;;;;;;;-2.22;75.26;97620.52;108755;1256;100558;-75
2023/01/28 07:32:59;;;;;;;40.60;23.60;;;;;;;-2.22;75.24;97624.91;108447;1252;99484;-75
2023/01/28 07:35:28;;;;;;;45.00;24.80;;;;;;;-2.19;75.34;97627.70;108646;1256;95853;-75
2023/01/28 07:37:58;;;;;;;45.70;24.90;;;;;;;-2.17;75.31;97631.46;108707;1253;96035;-74
2023/01/28 07:40:28;;;;;;;40.10;23.30;;;;;;;-2.17;75.23;97635.44;108701;1253;103515;-75
2023/01/28 07:42:56;;;;;;;43.20;24.60;;;;;;;-2.14;75.23;97633.98;108747;1253;101601;-75
2023/01/28 07:45:25;;;;;;;40.00;23.70;;;;;;;-2.13;75.21;97634.08;108653;1254;100160;-74
2023/01/28 07:47:58;;;;;;;40.60;23.10;;;;;;;-2.10;75.13;97637.52;108654;1253;95574;-75
2023/01/28 07:50:27;;;;;;;37.60;23.30;;;;;;;-2.08;75.04;97635.61;108476;1253;96113;-74
2023/01/28 07:52:56;;;;;;;41.30;24.30;;;;;;;-2.07;75.08;97634.67;108694;1254;103735;-75
2023/01/28 07:55:26;;;;;;;39.00;22.90;;;;;;;-2.03;75.12;97635.05;108683;1253;101411;-75
2023/01/28 07:57:56;;;;;;;42.80;22.90;;;;;;;-2.02;75.11;97641.80;108523;1254;99007;-75
2023/01/28 08:00:27;;;;;;;36.20;21.20;;;;;;;-1.99;75.15;97644.75;108654;1252;95610;-74
2023/01/28 08:03:00;;;;;;;38.50;21.70;;;;;;;-1.97;75.13;97649.31;108732;1255;96046;-75
2023/01/28 08:05:52;;;;;;;36.40;21.80;;;;;;;-1.96;75.02;97650.44;108689;1252;103522;-75
2023/01/28 08:08:21;;;;;;;37.70;21.40;;;;;;;-1.95;75.10;97650.92;108523;1256;100117;-75
2023/01/28 08:10:49;;;;;;;41.00;23.00;;;;;;;-1.95;74.88;97651.64;108715;1254;99861;-75
2023/01/28 08:13:19;;;;;;;38.40;23.30;;;;;;;-1.95;74.97;97651.98;108431;1254;95664;-75
2023/01/28 08:15:47;;;;;;;39.50;22.20;;;;;;;-1.94;75.02;97656.41;108734;1254;96027;-75
2023/01/28 08:18:16;;;;;;;36.30;20.70;;;;;;;-1.93;74.99;97660.58;108700;1253;103512;-75
2023/01/28 08:20:46;;;;;;;38.30;21.80;;;;;;;-1.94;74.98;97658.55;108675;1254;101540;-75
2023/01/28 08:23:17;;;;;;;38.80;20.30;;;;;;;-1.93;74.90;97658.16;108457;1251;100251;-75
2023/01/28 08:25:46;;;;;;;34.80;20.30;;;;;;;-1.91;75.01;97654.45;108756;1251;95797;-75
2023/01/28 08:28:16;;;;;;;35.90;20.70;;;;;;;-1.92;74.92;97650.26;108774;1251;96522;-74
2023/01/28 08:30:45;;;;;;;43.10;25.90;;;;;;;-1.94;74.79;97654.02;108774;1251;103761;-75
2023/01/28 08:33:15;;;;;;;41.40;26.20;;;;;;;-1.96;74.83;97656.09;108786;1251;101669;-74
2023/01/28 08:35:44;;;;;;;37.80;22.50;;;;;;;-2.00;74.79;97654.85;108787;1251;100009;-75
2023/01/28 08:38:15;;;;;;;36.10;19.80;;;;;;;-1.98;74.87;97657.73;108710;1251;95667;-74
2023/01/28 08:40:43;;;;;;;35.40;21.80;;;;;;;-1.96;74.85;97657.54;108776;1251;96003;-75
2023/01/28 08:43:11;;;;;;;41.90;24.20;;;;;;;-1.96;74.70;97658.26;108837;1251;103553;-75
2023/01/28 08:45:40;;;;;;;31.90;19.40;;;;;;;-1.96;74.80;97658.58;108801;1251;100985;-75
2023/01/28 08:48:12;;;;;;;34.20;20.00;;;;;;;-1.94;74.69;97658.04;108799;1251;99475;-75
2023/01/28 08:50:40;;;;;;;32.80;19.90;;;;;;;-1.93;74.72;97658.63;108773;1251;95824;-75
2023/01/28 08:53:17;;;;;;;33.00;18.60;;;;;;;-1.91;74.67;97659.34;108800;1251;95974;-75
2023/01/28 08:55:46;;;;;;;31.20;20.00;;;;;;;-1.88;74.45;97662.10;108768;1251;103755;-75
2023/01/28 08:58:17;;;;;;;28.40;17.30;;;;;;;-1.83;74.42;97661.04;108789;1251;101208;-75
2023/01/28 09:00:46;;;;;;;30.10;16.60;;;;;;;-1.78;74.46;97662.89;108774;1251;100281;-75
2023/01/28 09:03:14;;;;;;;28.80;18.00;;;;;;;-1.74;74.46;97664.34;108743;1251;95862;-75
2023/01/28 09:05:42;;;;;;;29.20;17.70;;;;;;;-1.72;74.46;97662.24;108769;1255;95996;-75
2023/01/28 09:08:15;;;;;;;34.00;19.10;;;;;;;-1.68;74.40;97669.48;108807;1250;112035;-75
2023/01/28 09:10:43;;;;;;;29.50;16.60;;;;;;;-1.65;74.32;97670.46;108781;1251;101207;-75
2023/01/28 09:13:14;;;;;;;29.10;17.60;;;;;;;-1.62;74.19;97671.77;108767;1251;100246;-75
2023/01/28 09:15:43;;;;;;;25.90;16.20;;;;;;;-1.62;74.15;97673.73;108759;1251;97174;-75
2023/01/28 09:18:11;;;;;;;27.00;15.20;;;;;;;-1.60;74.08;97674.83;108511;1251;96342;-75
2023/01/28 09:20:40;;;;;;;27.00;15.50;;;;;;;-1.61;73.90;97672.77;108784;1251;103562;-75
2023/01/28 09:23:08;;;;;;;26.30;16.10;;;;;;;-1.62;73.86;97671.47;108793;1251;101675;-75
2023/01/28 09:25:37;;;;;;;28.20;17.90;;;;;;;-1.61;73.97;97676.48;108526;1254;99919;-74
2023/01/28 09:28:06;;;;;;;30.10;16.70;;;;;;;-1.60;73.89;97674.59;108784;1251;95646;-75
2023/01/28 09:30:36;;;;;;;28.00;16.40;;;;;;;-1.59;73.86;97677.55;108578;1253;96084;-75
2023/01/28 09:33:05;;;;;;;29.80;17.10;;;;;;;-1.58;73.94;97679.09;108576;1251;103670;-75
2023/01/28 09:35:34;;;;;;;34.30;18.40;;;;;;;-1.59;73.67;97679.70;108794;1251;100301;-75
2023/01/28 09:38:02;;;;;;;45.90;22.30;;;;;;;-1.59;73.71;97678.58;108492;1251;99925;-76
2023/01/28 09:40:35;;;;;;;31.60;18.10;;;;;;;-1.58;73.71;97679.38;108755;1251;95550;-75
2023/01/28 09:43:39;;;;;;;32.70;17.00;;;;;;;-1.57;73.69;97676.46;108755;1251;96000;-75
2023/01/28 09:46:13;;;;;;;56.30;26.70;;;;;;;-1.57;73.57;97676.86;108772;1251;102640;-75
2023/01/28 09:48:48;;;;;;;33.20;19.40;;;;;;;-1.59;73.61;97675.10;108846;1251;101346;-76
2023/01/28 09:51:33;;;;;;;30.00;17.20;;;;;;;-1.59;73.52;97674.52;108765;1251;99956;-76
2023/01/28 09:54:13;;;;;;;43.40;23.10;;;;;;;-1.58;73.61;97670.95;108765;1251;95832;-75
2023/01/28 09:56:46;;;;;;;28.40;16.10;;;;;;;-1.54;73.60;97670.58;108566;1251;96138;-75
2023/01/28 09:59:23;;;;;;;40.60;20.80;;;;;;;-1.50;73.47;97670.21;108774;1251;103564;-75
2023/01/28 10:01:58;;;;;;;33.90;19.20;;;;;;;-1.46;73.52;97667.80;108777;1251;100368;-74
2023/01/28 10:04:32;;;;;;;32.20;18.00;;;;;;;-1.42;73.63;97668.81;108793;1251;99960;-74
2023/01/28 10:07:09;;;;;;;30.00;17.50;;;;;;;-1.37;73.63;97669.10;108545;1251;95828;-76
2023/01/28 10:10:13;;;;;;;31.00;17.90;;;;;;;-1.36;73.36;97669.61;108798;1251;96349;-75
2023/01/28 10:12:53;;;;;;;31.90;17.90;;;;;;;-1.39;73.27;97666.11;108190;1260;103511;-74
2023/01/28 10:15:45;;;;;;;39.00;21.40;;;;;;;-1.40;73.35;97666.88;108226;1258;101625;-75
2023/01/28 10:18:14;;;;;;;55.00;27.30;;;;;;;-1.38;73.47;97669.34;108193;1260;99767;-75
2023/01/28 10:20:56;;;;;;;33.00;16.70;;;;;;;-1.32;73.47;97665.19;108182;1259;95885;-75
2023/01/28 10:23:46;;;;;;;36.40;19.90;;;;;;;-1.28;73.29;97662.34;108222;1261;95987;-75
2023/01/28 10:26:23;;;;;;;29.20;16.70;;;;;;;-1.27;73.18;97664.16;108131;1258;102731;-75
2023/01/28 10:28:58;;;;;;;35.50;18.10;;;;;;;-1.27;73.02;97661.39;108224;1259;101439;-75
2023/01/28 10:31:35;;;;;;;57.60;23.60;;;;;;;-1.29;73.00;97659.21;108216;1258;99721;-75
2023/01/28 10:34:04;;;;;;;32.80;18.00;;;;;;;-1.25;72.96;97659.27;108205;1259;95653;-75
2023/01/28 10:36:33;;;;;;;35.70;17.80;;;;;;;-1.23;72.91;97657.64;108224;1258;96497;-76
2023/01/28 10:39:01;;;;;;;30.30;16.60;;;;;;;-1.21;72.99;97660.80;108240;1260;103581;-75
2023/01/28 10:41:29;;;;;;;33.30;18.50;;;;;;;-1.21;72.83;97661.67;108152;1260;101462;-75
2023/01/28 10:43:58;;;;;;;32.20;18.80;;;;;;;-1.20;72.83;97658.63;108063;1259;99867;-75
2023/01/28 10:46:34;;;;;;;25.70;16.70;;;;;;;-1.20;72.77;97656.65;108192;1260;95886;-76
2023/01/28 10:49:11;;;;;;;32.00;17.40;;;;;;;-1.18;72.76;97654.69;108403;1253;96268;-75
2023/01/28 10:51:41;;;;;;;27.50;16.40;;;;;;;-1.16;72.64;97657.16;108713;1254;102845;-76
2023/01/28 10:54:18;;;;;;;32.20;17.40;;;;;;;-1.13;72.56;97655.52;108670;1254;101420;-76
2023/01/28 10:56:49;;;;;;;28.70;17.60;;;;;;;-1.11;72.45;97656.96;108680;1252;100164;-75
2023/01/28 10:59:30;;;;;;;31.20;18.10;;;;;;;-1.12;72.44;97660.25;108731;1253;95946;-75
2023/01/28 11:02:02;;;;;;;28.40;16.50;;;;;;;-1.08;72.40;97657.94;108729;1253;96467;-76
2023/01/28 11:04:35;;;;;;;28.30;17.00;;;;;;;-1.08;72.19;97654.23;108567;1253;103510;-76
2023/01/28 11:07:03;;;;;;;;;;;;;;;-1.04;72.39;97650.41;108810;1254;100405;-75
2023/01/28 11:09:38;;;;;;;28.90;16.30;;;;;;;-1.01;72.35;97648.74;108733;1253;100461;-76
2023/01/28 11:12:24;;;;;;;28.30;16.70;;;;;;;-1.00;72.12;97645.13;108162;1253;97120;-75
2023/01/28 11:15:05;;;;;;;30.10;17.00;;;;;;;-0.97;72.20;97647.11;108479;1253;96850;-75
2023/01/28 11:17:39;;;;;;;28.90;15.70;;;;;;;-0.91;72.22;97643.40;108748;1251;102584;-76
2023/01/28 11:20:21;;;;;;;29.70;15.90;;;;;;;-0.88;72.04;97641.88;108809;1250;101292;-76
2023/01/28 11:22:50;;;;;;;27.00;16.10;;;;;;;-0.85;72.07;97641.80;108485;1252;99717;-75
2023/01/28 11:25:27;;;;;;;31.70;18.10;;;;;;;-0.83;71.99;97636.99;108719;1250;95559;-76
2023/01/28 11:27:56;;;;;;;29.20;17.70;;;;;;;-0.80;71.91;97637.65;108722;1252;96115;-75
2023/01/28 11:30:28;;;;;;;32.70;18.60;;;;;;;-0.78;71.93;97634.67;108717;1252;103255;-75
2023/01/28 11:33:15;;;;;;;23.90;13.00;;;;;;;-0.75;71.87;97633.14;108336;1250;101159;-76
2023/01/28 11:35:52;;;;;;;29.40;17.30;;;;;;;-0.71;71.78;97635.20;108776;1251;99081;-75
2023/01/28 11:38:23;;;;;;;34.90;17.50;;;;;;;-0.67;71.75;97634.40;108461;1253;95815;-76
2023/01/28 11:40:53;;;;;;;28.40;15.40;;;;;;;-0.64;71.65;97634.78;108755;1252;96119;-76
2023/01/28 11:43:30;;;;;;;29.70;16.40;;;;;;;-0.64;71.52;97632.85;108634;1254;102437;-76
2023/01/28 11:46:18;;;;;;;32.00;17.30;;;;;;;-0.64;71.60;97633.89;108737;1251;101325;-76
2023/01/28 11:49:20;;;;;;;29.30;15.80;;;;;;;-0.58;71.59;97635.17;108774;1251;99958;-75
2023/01/28 11:51:59;;;;;;;37.40;18.70;;;;;;;-0.55;71.33;97627.61;108810;1251;95583;-76
2023/01/28 11:54:57;;;;;;;29.70;16.60;;;;;;;-0.52;71.33;97626.48;108738;1251;96045;-76
2023/01/28 11:57:34;;;;;;;29.60;17.30;;;;;;;-0.49;71.47;97622.99;108455;1252;102552;-76
2023/01/28 12:00:16;;;;;;;26.10;15.60;;;;;;;-0.46;71.48;97626.27;108647;1251;103105;-75